createdAt,value
2018-08-06T00:01:02.596Z,3.01
2018-08-06T00:04:09.445Z,3.16
2018-08-06T00:07:15.729Z,2.81
2018-08-06T00:10:24.823Z,4.66
2018-08-06T00:13:31.197Z,2.86
2018-08-06T00:16:37.970Z,3.10
2018-08-06T00:19:44.552Z,2.47
2018-08-06T00:22:51.410Z,3.63
2018-08-06T00:25:58.003Z,2.77
2018-08-06T00:29:04.864Z,3.68
2018-08-06T00:32:11.480Z,4.30
2018-08-06T00:35:18.551Z,3.76
2018-08-06T00:38:25.764Z,3.16
2018-08-06T00:41:32.663Z,3.94
2018-08-06T00:44:39.176Z,3.64
2018-08-06T00:47:46.229Z,3.68
2018-08-06T00:50:53.902Z,3.64
2018-08-06T00:54:00.935Z,2.96
2018-08-06T00:57:07.777Z,2.73
2018-08-06T01:00:19.151Z,3.48
2018-08-06T01:03:26.062Z,4.25
2018-08-06T01:06:32.907Z,3.50
2018-08-06T01:09:39.774Z,2.73
2018-08-06T01:12:47.948Z,3.62
2018-08-06T01:15:53.679Z,2.95
2018-08-06T01:19:00.524Z,2.67
2018-08-06T01:22:07.277Z,3.25
2018-08-06T01:25:14.221Z,3.02
2018-08-06T01:28:21.397Z,2.91
2018-08-06T01:31:28.371Z,3.34
2018-08-06T01:34:35.544Z,2.80
2018-08-06T01:37:42.148Z,4.11
2018-08-06T01:40:48.699Z,4.94
2018-08-06T01:43:55.532Z,4.71
2018-08-06T01:47:02.384Z,3.32
2018-08-06T01:50:10.570Z,4.27
2018-08-06T01:53:17.815Z,3.32
2018-08-06T01:56:24.321Z,6.29
2018-08-06T01:59:30.906Z,4.21
2018-08-06T02:02:37.737Z,3.79
2018-08-06T02:05:44.240Z,3.33
2018-08-06T02:08:51.087Z,4.62
2018-08-06T02:11:58.159Z,4.87
2018-08-06T02:15:06.402Z,4.33
2018-08-06T02:18:13.347Z,4.61
2018-08-06T02:21:20.558Z,2.95
2018-08-06T02:24:27.609Z,2.99
2018-08-06T02:27:34.467Z,3.26
2018-08-06T02:30:41.313Z,4.48
2018-08-06T02:33:48.209Z,3.45
2018-08-06T02:36:55.351Z,5.42
2018-08-06T02:40:02.207Z,2.84
2018-08-06T02:43:08.756Z,3.44
2018-08-06T02:46:15.600Z,2.82
2018-08-06T02:49:22.783Z,3.75
2018-08-06T02:52:29.693Z,4.19
2018-08-06T02:55:36.531Z,3.36
2018-08-06T02:58:43.852Z,3.57
2018-08-06T03:01:50.748Z,3.76
2018-08-06T03:04:57.927Z,3.79
2018-08-06T03:08:04.776Z,3.05
2018-08-06T03:11:11.469Z,6.09
2018-08-06T03:14:18.226Z,4.88
2018-08-06T03:17:24.757Z,4.12
2018-08-06T03:20:31.274Z,3.30
2018-08-06T03:23:37.983Z,3.40
2018-08-06T03:26:44.732Z,3.02
2018-08-06T03:29:51.926Z,3.36
2018-08-06T03:32:58.645Z,2.72
2018-08-06T03:36:05.407Z,2.63
2018-08-06T03:39:12.282Z,3.84
2018-08-06T03:42:19.697Z,3.48
2018-08-06T03:45:26.208Z,3.04
2018-08-06T03:48:33.065Z,3.37
2018-08-06T03:51:40.351Z,3.17
2018-08-06T03:54:47.201Z,3.94
2018-08-06T03:57:53.776Z,4.99
2018-08-06T04:01:00.549Z,5.11
2018-08-06T04:04:07.787Z,3.66
2018-08-06T04:07:14.588Z,3.16
2018-08-06T04:10:21.442Z,3.66
2018-08-06T04:13:28.880Z,3.60
2018-08-06T04:16:46.057Z,4.47
2018-08-06T04:19:52.891Z,3.55
2018-08-06T04:23:00.504Z,4.15
2018-08-06T04:26:07.595Z,4.26
2018-08-06T04:29:14.747Z,3.57
2018-08-06T04:32:21.372Z,4.38
2018-08-06T04:35:28.128Z,3.56
2018-08-06T04:38:34.449Z,5.20
2018-08-06T04:41:41.511Z,3.69
2018-08-06T04:44:48.267Z,5.69
2018-08-06T04:47:54.521Z,4.98
2018-08-06T04:51:01.288Z,4.26
2018-08-06T04:54:08.177Z,4.77
2018-08-06T04:57:15.019Z,4.48
2018-08-06T05:00:21.785Z,6.99
2018-08-06T05:03:28.682Z,4.02
2018-08-06T05:06:35.530Z,4.03
2018-08-06T05:09:44.052Z,4.58
2018-08-06T05:12:50.343Z,5.03
2018-08-06T05:15:56.762Z,5.40
2018-08-06T05:19:03.876Z,5.03
2018-08-06T05:22:10.799Z,6.83
2018-08-06T05:25:17.910Z,5.18
2018-08-06T05:28:24.741Z,4.08
2018-08-06T05:31:31.344Z,5.58
2018-08-06T05:34:38.386Z,4.86
2018-08-06T05:37:45.500Z,4.11
2018-08-06T05:40:52.326Z,4.40
2018-08-06T05:43:58.871Z,6.50
2018-08-06T05:47:06.080Z,4.44
2018-08-06T05:50:14.422Z,4.17
2018-08-06T05:53:21.761Z,5.77
2018-08-06T05:56:28.594Z,4.43
2018-08-06T05:59:35.181Z,4.77
2018-08-06T06:02:42.011Z,6.00
2018-08-06T06:05:48.867Z,4.53
2018-08-06T06:08:55.879Z,5.12
2018-08-06T06:12:02.762Z,6.62
2018-08-06T06:15:14.418Z,3.57
2018-08-06T06:18:21.253Z,6.42
2018-08-06T06:21:28.270Z,6.26
2018-08-06T06:24:35.135Z,4.40
2018-08-06T06:27:43.009Z,4.71
2018-08-06T06:30:50.135Z,5.04
2018-08-06T06:33:56.827Z,4.77
2018-08-06T06:37:03.606Z,4.76
2018-08-06T06:40:10.479Z,3.84
2018-08-06T06:43:17.182Z,5.35
2018-08-06T06:46:23.944Z,4.19
2018-08-06T06:49:30.787Z,4.48
2018-08-06T06:52:37.500Z,4.58
2018-08-06T06:55:44.366Z,4.40
2018-08-06T06:58:51.560Z,4.10
2018-08-06T07:01:58.508Z,4.63
2018-08-06T07:05:06.465Z,3.84
2018-08-06T07:08:12.749Z,4.28
2018-08-06T07:11:19.667Z,6.12
2018-08-06T07:14:26.527Z,5.10
2018-08-06T07:17:33.377Z,4.31
2018-08-06T07:20:39.647Z,4.93
2018-08-06T07:23:46.490Z,5.31
2018-08-06T07:26:53.338Z,5.89
2018-08-06T07:30:00.204Z,5.08
2018-08-06T07:33:07.107Z,8.42
2018-08-06T07:36:14.289Z,6.74
2018-08-06T07:39:21.125Z,5.66
2018-08-06T07:42:27.727Z,5.31
2018-08-06T07:45:34.528Z,5.37
2018-08-06T07:48:41.390Z,4.07
2018-08-06T07:51:48.222Z,5.93
2018-08-06T07:54:55.065Z,5.33
2018-08-06T07:58:01.593Z,3.38
2018-08-06T08:01:08.433Z,4.83
2018-08-06T08:04:15.548Z,5.22
2018-08-06T08:07:22.007Z,4.36
2018-08-06T08:10:28.522Z,3.72
2018-08-06T08:13:35.153Z,4.24
2018-08-06T08:16:41.921Z,4.97
2018-08-06T08:19:48.842Z,5.36
2018-08-06T08:22:55.384Z,6.52
2018-08-06T08:26:02.207Z,4.84
2018-08-06T08:29:08.808Z,3.33
2018-08-06T08:32:15.579Z,4.78
2018-08-06T08:35:28.286Z,5.70
2018-08-06T08:38:35.129Z,4.69
2018-08-06T08:41:42.018Z,7.94
2018-08-06T08:44:48.830Z,6.40
2018-08-06T08:47:55.423Z,4.70
2018-08-06T08:51:02.176Z,6.80
2018-08-06T08:54:08.761Z,5.59
2018-08-06T08:57:15.892Z,5.28
2018-08-06T09:00:23.568Z,5.07
2018-08-06T09:03:30.419Z,5.34
2018-08-06T09:06:37.346Z,5.73
2018-08-06T09:09:43.775Z,4.35
2018-08-06T09:12:50.405Z,3.80
2018-08-06T09:15:56.982Z,4.48
2018-08-06T09:19:03.222Z,4.24
2018-08-06T09:22:09.991Z,5.28
2018-08-06T09:25:16.972Z,3.84
2018-08-06T09:28:23.579Z,5.71
2018-08-06T09:31:30.352Z,5.54
2018-08-06T09:34:37.187Z,4.12
2018-08-06T09:37:44.203Z,5.90
2018-08-06T09:40:50.484Z,4.88
2018-08-06T09:43:57.273Z,5.31
2018-08-06T09:47:03.925Z,3.80
2018-08-06T09:50:11.754Z,4.57
2018-08-06T09:53:18.808Z,5.91
2018-08-06T09:56:25.693Z,6.06
2018-08-06T09:59:32.294Z,3.08
2018-08-06T10:02:39.096Z,3.18
2018-08-06T10:05:46.277Z,3.41
2018-08-06T10:08:52.819Z,2.42
2018-08-06T10:11:59.647Z,6.70
2018-08-06T10:15:07.563Z,4.39
2018-08-06T10:18:14.419Z,2.64
2018-08-06T10:21:21.266Z,3.29
2018-08-06T10:24:28.140Z,2.72
2018-08-06T10:27:34.948Z,3.60
2018-08-06T10:30:41.977Z,2.59
2018-08-06T10:33:48.767Z,3.97
2018-08-06T10:36:55.365Z,3.88
2018-08-06T10:40:02.145Z,5.60
2018-08-06T10:43:08.851Z,3.53
2018-08-06T10:46:15.505Z,2.98
2018-08-06T10:49:22.800Z,3.40
2018-08-06T10:52:29.643Z,4.43
2018-08-06T10:55:36.524Z,4.98
2018-08-06T10:58:43.426Z,5.59
2018-08-06T11:01:50.034Z,4.31
2018-08-06T11:04:57.193Z,3.29
2018-08-06T11:08:03.824Z,2.70
2018-08-06T11:11:10.336Z,3.35
2018-08-06T11:14:17.015Z,2.56
2018-08-06T11:17:23.517Z,3.12
2018-08-06T11:20:30.434Z,6.21
2018-08-06T11:23:37.716Z,2.79
2018-08-06T11:26:44.549Z,3.65
2018-08-06T11:29:51.147Z,3.67
2018-08-06T11:32:57.837Z,2.58
2018-08-06T11:36:04.929Z,3.56
2018-08-06T11:39:12.804Z,3.49
2018-08-06T11:42:19.644Z,3.50
2018-08-06T11:45:26.522Z,3.72
2018-08-06T11:48:33.728Z,3.29
2018-08-06T11:51:40.335Z,2.54
2018-08-06T11:54:48.343Z,3.16
2018-08-06T11:57:55.220Z,2.93
2018-08-06T12:01:02.066Z,4.54
2018-08-06T12:04:09.323Z,2.58
2018-08-06T12:07:16.211Z,2.33
2018-08-06T12:10:23.053Z,2.27
2018-08-06T12:13:30.008Z,1.98
2018-08-06T12:16:36.883Z,2.01
2018-08-06T12:19:43.727Z,2.24
2018-08-06T12:22:52.036Z,2.53
2018-08-06T12:25:58.900Z,2.80
2018-08-06T12:29:05.492Z,3.28
2018-08-06T12:32:12.587Z,2.01
2018-08-06T12:35:19.550Z,3.59
2018-08-06T12:38:55.965Z,2.42
2018-08-06T12:42:02.798Z,3.25
2018-08-06T12:45:11.451Z,2.74
2018-08-06T12:48:17.789Z,2.06
2018-08-06T12:51:24.808Z,2.45
2018-08-06T12:54:31.581Z,2.11
2018-08-06T12:57:39.350Z,1.56
2018-08-06T13:00:46.212Z,1.75
2018-08-06T13:03:52.935Z,2.83
2018-08-06T13:06:59.362Z,1.93
2018-08-06T13:10:06.893Z,3.14
2018-08-06T13:13:13.696Z,2.62
2018-08-06T13:16:20.930Z,2.28
2018-08-06T13:19:27.549Z,3.06
2018-08-06T13:22:34.322Z,1.70
2018-08-06T13:25:42.687Z,2.34
2018-08-06T13:28:48.661Z,2.25
2018-08-06T13:31:55.273Z,2.73
2018-08-06T13:35:02.262Z,3.84
2018-08-06T13:38:09.011Z,2.99
2018-08-06T13:41:15.620Z,2.16
2018-08-06T13:44:22.155Z,2.16
2018-08-06T13:47:28.967Z,2.10
2018-08-06T13:50:35.942Z,2.06
2018-08-06T13:53:42.811Z,1.48
2018-08-06T13:56:50.114Z,2.76
2018-08-06T13:59:57.372Z,1.59
2018-08-06T14:03:04.211Z,2.32
2018-08-06T14:06:11.459Z,4.02
2018-08-06T14:09:18.065Z,2.21
2018-08-06T14:12:25.304Z,1.60
2018-08-06T14:15:32.576Z,2.02
2018-08-06T14:18:39.427Z,1.87
2018-08-06T14:21:46.645Z,1.63
2018-08-06T14:24:54.079Z,1.85
2018-08-06T14:28:01.401Z,2.18
2018-08-06T14:31:08.474Z,1.90
2018-08-06T14:34:15.800Z,1.49
2018-08-06T14:37:22.582Z,1.69
2018-08-06T14:40:29.539Z,2.67
2018-08-06T14:43:36.438Z,2.94
2018-08-06T14:46:43.009Z,1.98
2018-08-06T14:49:49.844Z,1.47
2018-08-06T14:52:56.455Z,1.50
2018-08-06T14:56:03.005Z,1.42
2018-08-06T14:59:09.624Z,1.63
2018-08-06T15:02:16.775Z,1.36
2018-08-06T15:05:23.371Z,1.20
2018-08-06T15:08:30.149Z,1.42
2018-08-06T15:11:37.069Z,2.05
2018-08-06T15:14:43.874Z,1.44
2018-08-06T15:17:50.777Z,1.49
2018-08-06T15:20:57.383Z,1.22
2018-08-06T15:24:04.220Z,1.36
2018-08-06T15:27:10.815Z,1.60
2018-08-06T15:30:18.018Z,1.99
2018-08-06T15:33:24.985Z,1.29
2018-08-06T15:36:31.712Z,1.28
2018-08-06T15:39:38.448Z,1.14
2018-08-06T15:42:45.365Z,4.36
2018-08-06T15:45:52.229Z,1.08
2018-08-06T15:48:59.104Z,1.23
2018-08-06T15:52:06.026Z,1.29
2018-08-06T15:55:13.174Z,1.28
2018-08-06T15:58:20.433Z,1.19
2018-08-06T16:01:27.055Z,0.97
2018-08-06T16:04:34.258Z,1.53
2018-08-06T16:07:41.507Z,1.51
2018-08-06T16:10:48.130Z,1.18
2018-08-06T16:13:55.304Z,1.37
2018-08-06T16:17:02.578Z,1.25
2018-08-06T16:20:12.144Z,2.03
2018-08-06T16:23:19.281Z,0.89
2018-08-06T16:26:25.826Z,0.98
2018-08-06T16:29:33.273Z,1.09
2018-08-06T16:32:39.888Z,1.24
2018-08-06T16:35:46.722Z,1.06
2018-08-06T16:38:53.311Z,1.21
2018-08-06T16:41:59.888Z,1.14
2018-08-06T16:45:07.736Z,1.27
2018-08-06T16:48:14.561Z,0.90
2018-08-06T16:51:21.431Z,1.00
2018-08-06T16:54:28.357Z,1.49
2018-08-06T16:57:35.743Z,1.31
2018-08-06T17:00:42.583Z,2.70
2018-08-06T17:03:49.208Z,1.11
2018-08-06T17:06:56.267Z,1.56
2018-08-06T17:10:03.139Z,1.70
2018-08-06T17:13:09.764Z,1.74
2018-08-06T17:16:16.591Z,2.11
2018-08-06T17:19:23.181Z,0.84
2018-08-06T17:22:30.179Z,1.37
2018-08-06T17:25:37.391Z,1.40
2018-08-06T17:28:44.529Z,2.34
2018-08-06T17:31:51.127Z,1.40
2018-08-06T17:34:58.258Z,1.76
2018-08-06T17:38:05.597Z,1.56
2018-08-06T17:41:12.584Z,2.08
2018-08-06T17:44:19.432Z,2.32
2018-08-06T17:47:26.078Z,2.17
2018-08-06T17:50:32.287Z,1.40
2018-08-06T17:53:39.048Z,1.53
2018-08-06T17:56:45.672Z,1.50
2018-08-06T17:59:52.419Z,3.10
2018-08-06T18:02:59.217Z,1.17
2018-08-06T18:06:06.711Z,3.00
2018-08-06T18:09:13.920Z,2.65
2018-08-06T18:12:21.153Z,2.32
2018-08-06T18:15:28.005Z,5.48
2018-08-06T18:18:34.843Z,1.70
2018-08-06T18:21:41.472Z,2.77
2018-08-06T18:24:48.624Z,1.62
2018-08-06T18:27:55.636Z,1.41
2018-08-06T18:31:02.774Z,2.20
2018-08-06T18:34:09.377Z,1.40
2018-08-06T18:37:16.301Z,1.93
2018-08-06T18:40:23.078Z,2.24
2018-08-06T18:43:30.257Z,1.99
2018-08-06T18:46:37.388Z,3.28
2018-08-06T18:49:43.989Z,2.27
2018-08-06T18:52:51.483Z,1.75
2018-08-06T18:55:58.335Z,1.70
2018-08-06T18:59:04.936Z,1.90
2018-08-06T19:02:11.702Z,2.52
2018-08-06T19:05:18.655Z,1.98
2018-08-06T19:08:25.837Z,1.94
2018-08-06T19:11:32.657Z,1.88
2018-08-06T19:14:39.294Z,4.18
2018-08-06T19:17:51.739Z,5.73
2018-08-06T19:20:59.037Z,2.30
2018-08-06T19:24:11.067Z,2.08
2018-08-06T19:27:17.799Z,5.20
2018-08-06T19:30:29.894Z,5.21
2018-08-06T19:33:36.723Z,2.09
2018-08-06T19:36:48.766Z,2.70
2018-08-06T19:39:55.594Z,4.47
2018-08-06T19:43:07.453Z,2.57
2018-08-06T19:46:13.970Z,2.54
2018-08-06T19:49:25.926Z,2.46
2018-08-06T19:52:32.829Z,2.26
2018-08-06T19:55:44.854Z,2.30
2018-08-06T19:58:51.609Z,3.40
2018-08-06T20:01:58.496Z,2.99
2018-08-06T20:05:05.551Z,3.21
2018-08-06T20:08:12.297Z,3.67
2018-08-06T20:11:19.274Z,2.53
2018-08-06T20:14:26.139Z,2.54
2018-08-06T20:17:32.925Z,2.78
2018-08-06T20:20:39.744Z,3.11
2018-08-06T20:23:46.792Z,3.28
2018-08-06T20:26:53.629Z,2.94
2018-08-06T20:30:00.514Z,3.42
2018-08-06T20:33:07.746Z,4.43
2018-08-06T20:36:14.307Z,2.50
2018-08-06T20:39:20.836Z,2.58
2018-08-06T20:42:27.758Z,2.70
2018-08-06T20:45:34.582Z,3.19
2018-08-06T20:48:41.445Z,4.33
2018-08-06T20:51:48.140Z,3.46
2018-08-06T20:54:55.072Z,2.45
2018-08-06T20:58:02.829Z,2.80
2018-08-06T21:01:09.682Z,2.48
2018-08-06T21:04:16.507Z,2.81
2018-08-06T21:07:23.355Z,2.54
2018-08-06T21:10:30.187Z,2.54
2018-08-06T21:13:37.121Z,2.42
2018-08-06T21:16:44.915Z,2.61
2018-08-06T21:19:52.053Z,3.01
2018-08-06T21:22:59.511Z,2.62
2018-08-06T21:26:06.917Z,3.10
2018-08-06T21:29:14.061Z,3.22
2018-08-06T21:32:21.102Z,2.79
2018-08-06T21:35:28.666Z,2.46
2018-08-06T21:38:35.499Z,2.38
2018-08-06T21:41:42.359Z,2.69
2018-08-06T21:44:49.196Z,2.54
2018-08-06T21:47:55.773Z,2.69
2018-08-06T21:51:02.594Z,3.24
2018-08-06T21:54:09.780Z,2.56
2018-08-06T21:57:16.274Z,2.52
2018-08-06T22:00:41.954Z,3.41
2018-08-06T22:03:48.864Z,2.33
2018-08-06T22:06:55.769Z,3.11
2018-08-06T22:10:02.604Z,2.54
2018-08-06T22:13:10.136Z,2.43
2018-08-06T22:16:16.968Z,2.60
2018-08-06T22:19:26.871Z,2.51
2018-08-06T22:22:33.742Z,3.45
2018-08-06T22:25:40.623Z,2.62
2018-08-06T22:28:47.137Z,2.81
2018-08-06T22:31:53.769Z,2.62
2018-08-06T22:35:00.592Z,2.52
2018-08-06T22:38:07.184Z,3.00
2018-08-06T22:41:14.134Z,3.20
2018-08-06T22:44:20.978Z,2.98
2018-08-06T22:47:27.816Z,4.14
2018-08-06T22:50:34.331Z,4.63
2018-08-06T22:53:41.301Z,3.25
2018-08-06T22:56:48.092Z,3.54
2018-08-06T22:59:54.946Z,2.87
2018-08-06T23:03:01.642Z,2.81
2018-08-06T23:06:09.431Z,3.31
2018-08-06T23:09:16.138Z,2.82
2018-08-06T23:12:22.857Z,3.26
2018-08-06T23:15:29.706Z,3.95
2018-08-06T23:18:36.552Z,2.72
2018-08-06T23:21:43.939Z,2.81
2018-08-06T23:24:51.151Z,2.63
2018-08-06T23:27:57.411Z,3.74
2018-08-06T23:31:04.005Z,2.80
2018-08-06T23:34:10.869Z,2.85
2018-08-06T23:37:18.042Z,2.80
2018-08-06T23:40:24.625Z,2.53
2018-08-06T23:43:31.463Z,2.25
2018-08-06T23:46:38.290Z,3.48
2018-08-06T23:49:45.115Z,3.16
2018-08-06T23:52:51.988Z,2.56
2018-08-06T23:55:58.488Z,3.69
2018-08-06T23:59:06.244Z,3.87
